Latest Weather Observations for Burketown Airport

IDQ60801

Issued at 10:02 pm EST Sunday 2 August 2015 (issued every 30 minutes, with the page automatically refreshed every 10 minutes)

About weather observations | Map of weather stations | Latest weather observations for QLD | Other Formats
Station Details ID: 029077 Name: BURKETOWN AIRPORT Lat: -17.75 Lon: 139.54 Height: 5.7 m
Data from the previous 72 hours. | See also: Recent months at Burketown Airport
Date/Time
EST
Temp
°C
App
Temp
°C
Dew
Point
Rel
Hum
%
Delta-T
°C
Wind Press
QNH
hPa
Press
MSL
hPa
Rain
since 9 am
mm
Dir
 
Spd
km/h
Gust
km/h
Spd
kts
Gust
kts
02/10:00pm 17.3 15.8 11.8 70 3.0 NW 11 13 6 7 1017.3 - 0.0
02/09:30pm 17.9 16.7 11.7 67 3.4 NNW 9 11 5 6 1017.3 - 0.0
02/09:00pm 18.4 16.8 11.7 65 3.7 NNW 11 13 6 7 1017.1 1017.0 0.0
02/08:30pm 18.8 17.0 12.1 65 3.7 NNW 13 13 7 7 1016.9 - 0.0
02/08:00pm 19.6 17.5 12.4 63 4.0 NNW 15 15 8 8 1016.8 - 0.0
02/07:30pm 20.2 18.5 12.4 61 4.4 NNW 13 15 7 8 1016.7 - 0.0
02/07:00pm 21.7 20.3 12.3 55 5.3 N 11 13 6 7 1016.5 - 0.0
02/06:30pm 23.4 22.2 12.7 51 6.1 N 11 11 6 6 1016.4 - 0.0
02/06:00pm 25.2 24.1 13.1 47 7.0 N 11 15 6 8 1016.4 1016.3 0.0
02/05:30pm 25.9 24.1 13.4 46 7.3 NNE 15 19 8 10 1016.4 - 0.0
02/05:00pm 26.3 23.9 13.8 46 7.4 NNE 19 24 10 13 1016.4 - 0.0
02/04:30pm 27.2 25.1 14.6 46 7.6 NNE 19 24 10 13 1016.3 - 0.0
02/04:00pm 27.0 24.6 14.4 46 7.5 NNE 20 28 11 15 1016.3 - 0.0
02/03:30pm 27.3 25.1 14.3 45 7.8 NNE 19 28 10 15 1016.5 - 0.0
02/03:00pm 27.3 24.5 14.3 45 7.8 NNE 22 32 12 17 1016.8 1016.7 0.0
02/02:30pm 28.7 25.7 14.9 43 8.4 NE 24 35 13 19 - - 0.0
02/02:00pm 27.0 23.4 14.1 45 7.7 NNE 26 37 14 20 1017.5 - 0.0
02/01:30pm 27.4 23.5 13.4 42 8.3 NNE 26 35 14 19 1017.7 - 0.0
02/01:00pm 27.8 23.1 13.3 40 8.6 NNE 30 41 16 22 1018.2 - 0.0
02/12:30pm 27.6 23.8 14.6 45 7.8 NNE 28 37 15 20 1018.8 - 0.0
02/12:00pm 27.9 23.9 15.2 46 7.7 NE 30 37 16 20 1019.2 1019.1 0.0
02/11:30am 27.0 23.3 16.0 51 6.8 NE 30 39 16 21 1019.5 - 0.0
02/11:00am 26.3 22.3 16.3 54 6.2 NE 32 43 17 23 1019.7 - 0.0
02/10:30am 25.7 21.3 15.7 54 6.1 NE 33 43 18 23 1019.6 - 0.0
02/10:00am 25.4 21.5 14.5 51 6.5 NE 28 37 15 20 1019.6 - 0.0
02/09:30am 24.3 21.3 12.6 48 6.7 ENE 20 28 11 15 1019.4 - 0.0
02/09:00am 21.9 18.1 9.8 46 6.5 E 20 32 11 17 1019.0 1018.9 0.0
02/08:30am 20.5 16.5 8.2 45 6.4 ESE 19 22 10 12 1018.5 - 0.0
02/08:00am 18.3 15.3 9.1 55 4.8 SSE 15 19 8 10 1018.0 - 0.0
02/07:30am 16.2 13.7 9.8 66 3.3 SSE 13 15 7 8 1017.7 - 0.0
02/07:00am 16.2 14.1 9.6 65 3.4 SE 11 15 6 8 1017.4 - 0.0
02/06:30am 17.3 15.0 10.4 64 3.7 S 13 17 7 9 1016.8 - 0.0
02/06:00am 17.1 15.1 11.4 69 3.1 SSW 13 15 7 8 1016.4 1016.3 0.0
02/05:30am 16.7 14.6 11.2 70 3.0 SSW 13 15 7 8 1016.3 - 0.0
02/05:00am 15.2 13.3 11.8 80 1.8 SSW 13 15 7 8 1016.3 - 0.0
02/04:30am 14.1 13.2 11.4 84 1.4 SSW 7 9 4 5 1016.4 - 0.0
02/04:00am 15.0 13.6 10.8 76 2.2 S 9 9 5 5 1016.3 - 0.0
02/03:30am 15.6 15.0 11.8 78 2.1 SSE 6 6 3 3 1016.3 - 0.0
02/03:00am 16.1 15.2 10.8 71 2.8 SSE 6 7 3 4 1016.1 1016.0 0.0
02/02:30am 16.6 15.6 12.4 76 2.3 SW 9 11 5 6 1015.9 - 0.0
02/02:00am 15.9 14.2 11.3 74 2.5 WSW 11 13 6 7 1016.0 - 0.0
02/01:30am 16.3 14.4 11.9 75 2.4 WSW 13 13 7 7 1016.0 - 0.0
02/01:00am 17.0 15.7 12.5 75 2.5 WSW 11 11 6 6 1016.1 - 0.0
02/12:30am 17.4 16.0 12.3 72 2.8 WSW 11 13 6 7 1016.1 - 0.0
02/12:00am 17.6 16.3 12.5 72 2.8 W 11 11 6 6 1016.2 1016.1 0.0
 
Date/Time
EST
Temp
°C
App
Temp
°C
Dew
Point
Rel
Hum
%
Delta-T
°C
Wind Press
QNH
hPa
Press
MSL
hPa
Rain
since 9 am
mm
Dir
 
Spd
km/h
Gust
km/h
Spd
kts
Gust
kts
01/11:30pm 17.5 16.5 12.4 72 2.8 W 9 9 5 5 1016.4 - 0.0
01/11:00pm 17.9 16.7 11.7 67 3.4 WNW 9 11 5 6 1016.5 - 0.0
01/10:30pm 17.9 16.8 11.9 68 3.3 W 9 11 5 6 1016.4 - 0.0
01/10:00pm 18.1 17.0 11.9 67 3.4 WNW 9 9 5 5 1016.1 - 0.0
01/09:30pm 18.4 17.3 11.9 66 3.6 WNW 9 11 5 6 1016.0 - 0.0
01/09:00pm 18.5 17.0 11.8 65 3.7 WNW 11 13 6 7 1015.8 1015.7 0.0
01/08:30pm 18.8 17.1 11.1 61 4.2 NW 11 13 6 7 1015.6 - 0.0
01/08:00pm 19.8 17.8 11.6 59 4.5 NNW 13 13 7 7 1015.5 - 0.0
01/07:30pm 20.6 19.1 11.8 57 4.9 NNW 11 13 6 7 1015.1 - 0.0
01/07:00pm 22.0 20.3 12.3 54 5.5 NNW 13 13 7 7 1015.1 - 0.0
01/06:30pm 24.3 22.6 12.6 48 6.7 N 13 17 7 9 1014.8 - 0.0
01/06:00pm 26.3 23.8 12.4 42 8.0 N 17 20 9 11 1014.8 1014.7 0.0
01/05:30pm 27.4 24.7 11.8 38 9.0 N 17 22 9 12 1014.8 - 0.0
01/05:00pm 28.4 26.1 11.9 36 9.5 N 15 24 8 13 1014.7 - 0.0
01/04:30pm 28.6 26.0 10.8 33 10.1 N 15 20 8 11 1014.7 - 0.0
01/04:00pm 28.6 26.0 10.8 33 10.1 NNE 15 20 8 11 1014.9 - 0.0
01/03:30pm 29.2 27.4 10.8 32 10.5 NNE 11 17 6 9 1015.0 - 0.0
01/03:00pm 28.5 26.7 10.7 33 10.1 NNE 11 17 6 9 1015.3 1015.2 0.0
01/02:30pm 28.4 26.9 11.9 36 9.5 NE 11 20 6 11 1015.8 - 0.0
01/02:00pm 27.7 25.5 12.1 38 9.0 NNE 15 22 8 12 1016.2 - 0.0
01/01:30pm 28.0 25.1 12.4 38 9.1 NNE 19 26 10 14 1016.7 - 0.0
01/01:00pm 27.0 23.6 12.6 41 8.4 NNE 22 30 12 16 1017.4 - 0.0
01/12:30pm 27.7 24.8 12.9 40 8.7 NE 20 32 11 17 1018.0 - 0.0
01/12:00pm 26.7 22.2 12.7 42 8.1 NE 28 35 15 19 1018.5 1018.4 0.0
01/11:30am 27.1 23.1 13.1 42 8.2 NE 26 37 14 20 1018.8 - 0.0
01/11:00am 26.3 21.1 12.7 43 7.9 NE 32 39 17 21 1019.1 - 0.0
01/10:30am 26.2 21.6 12.3 42 8.0 NE 28 37 15 20 1019.3 - 0.0
01/10:00am 26.5 21.6 13.6 45 7.6 NE 32 43 17 23 1019.1 - 0.0
01/09:30am 24.9 20.6 14.4 52 6.2 NE 30 39 16 21 1018.9 - 0.0
01/09:00am 24.9 21.4 15.5 56 5.7 NE 28 37 15 20 1018.7 1018.6 0.0
01/08:30am 23.7 21.0 15.7 61 4.8 ENE 24 35 13 19 1018.3 - 0.0
01/08:00am 22.5 20.2 15.8 66 4.0 NE 22 30 12 16 1017.7 - 0.0
01/07:30am 21.3 19.0 15.8 71 3.3 NE 22 30 12 16 1017.1 - 0.0
01/07:00am 17.9 14.8 11.5 66 3.5 ENE 19 24 10 13 1016.5 - 0.0
01/06:30am 16.2 12.2 4.9 47 5.3 ESE 15 17 8 9 1016.2 - 0.0
01/06:00am 15.9 11.8 4.3 46 5.4 SE 15 17 8 9 1015.7 1015.6 0.0
01/05:30am 16.2 12.1 4.6 46 5.5 SSE 15 17 8 9 1015.6 - 0.0
01/05:00am 15.8 12.5 4.8 48 5.2 SSE 11 11 6 6 1015.3 - 0.0
01/04:30am 16.3 12.3 5.0 47 5.4 S 15 17 8 9 1015.2 - 0.0
01/04:00am 16.2 12.8 6.1 51 4.9 S 13 13 7 7 1015.2 - 0.0
01/03:30am 15.8 13.2 7.8 59 4.0 S 11 13 6 7 1015.4 - 0.0
01/03:00am 15.9 14.0 8.9 63 3.6 SSW 9 11 5 6 1015.5 1015.4 0.0
01/02:30am 16.1 14.0 8.3 60 4.0 SSW 9 11 5 6 1015.7 - 0.0
01/02:00am 16.5 14.5 8.7 60 4.0 SSW 9 11 5 6 1016.0 - 0.0
01/01:30am 16.7 14.0 9.1 61 3.9 SSW 13 15 7 8 1016.1 - 0.0
01/01:00am 16.9 14.2 8.8 59 4.2 SSW 13 15 7 8 1016.2 - 0.0
01/12:30am 17.1 14.8 9.0 59 4.2 SSW 11 11 6 6 1016.2 - 0.0
01/12:00am 17.2 14.9 9.1 59 4.2 SSW 11 11 6 6 1016.3 1016.2 0.0
 
Date/Time
EST
Temp
°C
App
Temp
°C
Dew
Point
Rel
Hum
%
Delta-T
°C
Wind Press
QNH
hPa
Press
MSL
hPa
Rain
since 9 am
mm
Dir
 
Spd
km/h
Gust
km/h
Spd
kts
Gust
kts
31/11:30pm 17.6 15.8 9.5 59 4.2 SW 9 11 5 6 1016.5 - 0.0
31/11:00pm 17.5 15.5 10.1 62 3.9 WSW 11 11 6 6 1016.5 - 0.0
31/10:30pm 18.0 16.4 10.1 60 4.2 WSW 9 9 5 5 1016.3 - 0.0
31/10:00pm 17.9 16.5 11.0 64 3.7 W 9 11 5 6 1016.2 - 0.0
31/09:30pm 18.5 17.0 9.3 55 4.8 WNW 7 9 4 5 1016.3 - 0.0
31/09:00pm 19.6 18.2 9.5 52 5.3 NW 7 9 4 5 1015.9 1015.8 0.0
31/08:30pm 20.6 19.3 9.8 50 5.8 WNW 7 9 4 5 1015.6 - 0.0
31/08:00pm 21.4 19.2 9.3 46 6.5 NNW 11 11 6 6 1015.2 - 0.0
31/07:30pm 21.4 18.8 9.3 46 6.5 N 13 15 7 8 1014.8 - 0.0
31/07:00pm 23.0 20.3 9.0 41 7.5 N 13 13 7 7 1014.5 - 0.0
31/06:30pm 24.7 21.5 8.6 36 8.6 N 15 20 8 11 1014.3 - 0.0
31/06:00pm 27.1 23.3 9.0 32 9.9 N 19 24 10 13 1014.1 1014.0 0.0
31/05:30pm 28.2 25.9 9.0 30 10.6 N 11 15 6 8 1013.9 - 0.0
31/05:00pm 29.5 27.1 8.5 27 11.6 S 11 20 6 11 1013.9 - 0.0
31/04:30pm 29.4 27.7 8.5 27 11.5 S 7 19 4 10 1014.0 - 0.0
31/04:00pm 28.9 27.3 8.6 28 11.2 WNW 7 15 4 8 1014.3 - 0.0
31/03:30pm 29.2 26.2 9.3 29 11.1 ENE 15 22 8 12 1014.7 - 0.0
31/03:00pm 28.4 25.0 9.2 30 10.6 ENE 17 26 9 14 1015.2 1015.1 0.0
31/02:30pm 29.2 26.1 10.3 31 10.7 ENE 17 28 9 15 1015.7 - 0.0
31/02:00pm 28.3 24.4 8.6 29 10.8 NE 19 32 10 17 1016.2 - 0.0
31/01:30pm 28.2 25.0 9.9 32 10.2 ENE 17 30 9 16 1016.7 - 0.0
31/01:00pm 28.5 25.9 12.0 36 9.6 NE 17 26 9 14 1017.3 - 0.0
31/12:30pm 27.4 24.3 12.2 39 8.8 E 20 32 11 17 1018.0 - 0.0
31/12:00pm 27.0 23.9 12.3 40 8.5 ENE 20 30 11 16 1018.4 1018.3 0.0
31/11:30am 26.7 23.3 12.4 41 8.3 ENE 22 30 12 16 1018.8 - 0.0
31/11:00am 26.6 23.0 11.9 40 8.4 ENE 22 28 12 15 1019.2 - 0.0
31/10:30am 25.6 21.4 11.0 40 8.2 ENE 24 32 13 17 1019.4 - 0.0
31/10:00am 25.2 21.2 10.3 39 8.3 ENE 22 28 12 15 1019.7 - 0.0
31/09:30am 23.9 20.1 7.5 35 8.6 E 17 28 9 15 1019.6 - 0.0
31/09:00am 21.8 17.0 4.8 33 8.3 ESE 19 24 10 13 1019.4 1019.3 0.0
31/08:30am 20.1 15.1 3.8 34 7.8 SE 19 22 10 12 1019.2 - 0.0
31/08:00am 18.1 13.2 3.9 39 6.7 SSE 19 22 10 12 1018.9 - 0.0
31/07:30am 16.3 12.3 4.7 46 5.5 SSE 15 19 8 10 1018.5 - 0.0
31/07:00am 16.2 12.2 4.9 47 5.3 SE 15 17 8 9 1018.0 - 0.0
31/06:30am 16.6 13.0 4.9 46 5.6 SSE 13 15 7 8 1017.6 - 0.0
31/06:00am 17.6 13.7 5.5 45 5.8 SE 15 17 8 9 1017.4 1017.3 0.0
31/05:30am 18.0 14.2 5.9 45 5.9 SSE 15 19 8 10 1017.1 - 0.0
31/05:00am 18.3 14.3 6.5 46 5.9 SSE 17 20 9 11 1017.1 - 0.0
31/04:30am 18.4 14.8 6.9 47 5.8 SSE 15 19 8 10 1017.1 - 0.0
31/04:00am 18.7 15.1 6.9 46 5.9 SSE 15 17 8 9 1017.2 - 0.0
31/03:30am 19.3 15.8 7.4 46 6.1 SSE 15 17 8 9 1017.2 - 0.0
31/03:00am 18.7 15.5 6.9 46 5.9 S 13 15 7 8 1017.4 1017.3 0.0
31/02:30am 19.9 16.4 7.0 43 6.5 SSE 15 15 8 8 1017.4 - 0.0
31/02:00am 20.3 16.8 7.0 42 6.8 SSE 15 17 8 9 1017.7 - 0.0
31/01:30am 20.8 17.3 7.4 42 6.9 SE 15 17 8 9 1017.9 - 0.0
31/01:00am 20.4 17.0 7.7 44 6.5 SE 15 17 8 9 1018.1 - 0.0
31/12:30am 19.3 16.7 7.7 47 5.9 SSE 11 13 6 7 1018.2 - 0.0
31/12:00am 20.3 17.5 8.6 47 6.1 SE 13 15 7 8 1018.3 1018.2 0.0
 
Date/Time
EST
Temp
°C
App
Temp
°C
Dew
Point
Rel
Hum
%
Delta-T
°C
Wind Press
QNH
hPa
Press
MSL
hPa
Rain
since 9 am
mm
Dir
 
Spd
km/h
Gust
km/h
Spd
kts
Gust
kts
30/11:30pm 19.7 17.5 10.7 56 4.9 SSE 13 15 7 8 1018.4 - 0.0
30/11:00pm 19.2 17.4 11.0 59 4.5 S 11 11 6 6 1018.5 - 0.0
30/10:30pm 19.6 17.8 10.9 57 4.7 S 11 11 6 6 1018.7 - 0.0

Other Formats:

Comma delimited format used in spreadsheet applications
http://www.bom.gov.au/fwo/IDQ60801/IDQ60801.94260.axf

JavaScript Object Notation format (JSON) in row-major order
http://www.bom.gov.au/fwo/IDQ60801/IDQ60801.94260.json